sensor_id;sensor_type;location;lat;lon;timestamp;pressure;altitude;pressure_sealevel;temperature;humidity
21203;BME280;10759;51.982;9.232;2023-08-31T00:00:08;99498.88;;;12.38;100.00
21203;BME280;10759;51.982;9.232;2023-08-31T00:02:38;99504.09;;;12.41;100.00
21203;BME280;10759;51.982;9.232;2023-08-31T00:05:09;99505.31;;;12.35;100.00
21203;BME280;10759;51.982;9.232;2023-08-31T00:07:37;99505.63;;;12.45;100.00
21203;BME280;10759;51.982;9.232;2023-08-31T00:10:06;99507.78;;;12.54;100.00
21203;BME280;10759;51.982;9.232;2023-08-31T00:12:36;99507.41;;;12.60;100.00
21203;BME280;10759;51.982;9.232;2023-08-31T00:15:05;99514.03;;;12.69;100.00
21203;BME280;10759;51.982;9.232;2023-08-31T00:17:35;99505.13;;;12.68;100.00
21203;BME280;10759;51.982;9.232;2023-08-31T00:20:06;99518.09;;;12.76;100.00
21203;BME280;10759;51.982;9.232;2023-08-31T00:22:36;99516.66;;;12.71;100.00
21203;BME280;10759;51.982;9.232;2023-08-31T00:25:05;99501.94;;;12.62;100.00
21203;BME280;10759;51.982;9.232;2023-08-31T00:27:34;99520.19;;;12.71;100.00
21203;BME280;10759;51.982;9.232;2023-08-31T00:30:04;99501.25;;;12.58;100.00
21203;BME280;10759;51.982;9.232;2023-08-31T00:32:35;99482.91;;;12.51;100.00
21203;BME280;10759;51.982;9.232;2023-08-31T00:35:05;99518.56;;;12.68;100.00
21203;BME280;10759;51.982;9.232;2023-08-31T00:37:34;99516.22;;;12.62;100.00
21203;BME280;10759;51.982;9.232;2023-08-31T00:40:05;99508.28;;;12.61;100.00
21203;BME280;10759;51.982;9.232;2023-08-31T00:42:35;99498.59;;;12.58;100.00
21203;BME280;10759;51.982;9.232;2023-08-31T00:45:05;99511.91;;;12.60;100.00
21203;BME280;10759;51.982;9.232;2023-08-31T00:47:33;99508.63;;;12.40;100.00
21203;BME280;10759;51.982;9.232;2023-08-31T00:50:02;99498.41;;;12.31;100.00
21203;BME280;10759;51.982;9.232;2023-08-31T00:52:31;99500.91;;;12.34;100.00
21203;BME280;10759;51.982;9.232;2023-08-31T00:55:00;99508.44;;;12.28;100.00
21203;BME280;10759;51.982;9.232;2023-08-31T00:57:33;99514.38;;;12.18;100.00
21203;BME280;10759;51.982;9.232;2023-08-31T01:00:02;99477.06;;;11.98;100.00
21203;BME280;10759;51.982;9.232;2023-08-31T01:02:39;99509.34;;;12.12;100.00
21203;BME280;10759;51.982;9.232;2023-08-31T01:05:29;99507.78;;;12.08;100.00
21203;BME280;10759;51.982;9.232;2023-08-31T01:08:09;99506.75;;;12.11;100.00
21203;BME280;10759;51.982;9.232;2023-08-31T01:10:45;99505.03;;;12.10;100.00
21203;BME280;10759;51.982;9.232;2023-08-31T01:13:21;99385.22;;;11.29;100.00
21203;BME280;10759;51.982;9.232;2023-08-31T01:15:55;99513.34;;;12.05;100.00
21203;BME280;10759;51.982;9.232;2023-08-31T01:18:24;99404.09;;;11.44;100.00
21203;BME280;10759;51.982;9.232;2023-08-31T01:21:02;99516.44;;;12.13;100.00
21203;BME280;10759;51.982;9.232;2023-08-31T01:23:52;99516.03;;;12.05;100.00
21203;BME280;10759;51.982;9.232;2023-08-31T01:26:22;99514.38;;;12.02;100.00
21203;BME280;10759;51.982;9.232;2023-08-31T01:28:51;99514.31;;;12.04;100.00
21203;BME280;10759;51.982;9.232;2023-08-31T01:31:20;99518.03;;;12.01;100.00
21203;BME280;10759;51.982;9.232;2023-08-31T01:33:49;99524.78;;;12.09;100.00
21203;BME280;10759;51.982;9.232;2023-08-31T01:36:22;99526.25;;;11.98;100.00
21203;BME280;10759;51.982;9.232;2023-08-31T01:38:58;99483.31;;;11.67;100.00
21203;BME280;10759;51.982;9.232;2023-08-31T01:41:32;99536.13;;;11.98;100.00
21203;BME280;10759;51.982;9.232;2023-08-31T01:44:03;99535.19;;;11.99;100.00
21203;BME280;10759;51.982;9.232;2023-08-31T01:46:32;99519.38;;;12.24;100.00
21203;BME280;10759;51.982;9.232;2023-08-31T01:49:00;99525.44;;;12.28;100.00
21203;BME280;10759;51.982;9.232;2023-08-31T01:51:29;99529.06;;;12.43;100.00
21203;BME280;10759;51.982;9.232;2023-08-31T01:54:00;99521.25;;;12.38;100.00
21203;BME280;10759;51.982;9.232;2023-08-31T01:56:28;99522.19;;;12.37;100.00
21203;BME280;10759;51.982;9.232;2023-08-31T01:58:58;99510.34;;;12.25;100.00
21203;BME280;10759;51.982;9.232;2023-08-31T02:01:28;99520.94;;;12.29;100.00
21203;BME280;10759;51.982;9.232;2023-08-31T02:03:57;99537.53;;;12.35;100.00
21203;BME280;10759;51.982;9.232;2023-08-31T02:06:27;99540.16;;;12.37;100.00
21203;BME280;10759;51.982;9.232;2023-08-31T02:08:55;99544.06;;;12.31;100.00
21203;BME280;10759;51.982;9.232;2023-08-31T02:11:24;99535.19;;;11.99;100.00
21203;BME280;10759;51.982;9.232;2023-08-31T02:13:55;99549.03;;;12.07;100.00
21203;BME280;10759;51.982;9.232;2023-08-31T02:16:23;99547.91;;;12.11;100.00
21203;BME280;10759;51.982;9.232;2023-08-31T02:18:51;99525.38;;;11.98;100.00
21203;BME280;10759;51.982;9.232;2023-08-31T02:21:20;99538.28;;;12.07;100.00
21203;BME280;10759;51.982;9.232;2023-08-31T02:23:48;99531.13;;;11.92;100.00
21203;BME280;10759;51.982;9.232;2023-08-31T02:26:16;99544.97;;;12.00;100.00
21203;BME280;10759;51.982;9.232;2023-08-31T02:28:47;99508.81;;;11.74;100.00
21203;BME280;10759;51.982;9.232;2023-08-31T02:31:17;99543.81;;;11.88;100.00
21203;BME280;10759;51.982;9.232;2023-08-31T02:33:45;99560.78;;;11.89;100.00
21203;BME280;10759;51.982;9.232;2023-08-31T02:36:13;99558.38;;;11.84;100.00
21203;BME280;10759;51.982;9.232;2023-08-31T02:38:42;99553.94;;;11.67;100.00
21203;BME280;10759;51.982;9.232;2023-08-31T02:41:10;99555.41;;;11.73;100.00
21203;BME280;10759;51.982;9.232;2023-08-31T02:43:38;99545.69;;;11.70;100.00
21203;BME280;10759;51.982;9.232;2023-08-31T02:46:10;99551.25;;;11.67;100.00
21203;BME280;10759;51.982;9.232;2023-08-31T02:48:39;99550.63;;;11.78;100.00
21203;BME280;10759;51.982;9.232;2023-08-31T02:51:07;99549.59;;;11.65;100.00
21203;BME280;10759;51.982;9.232;2023-08-31T02:53:36;99553.47;;;11.59;100.00
21203;BME280;10759;51.982;9.232;2023-08-31T02:56:04;99552.53;;;11.60;100.00
21203;BME280;10759;51.982;9.232;2023-08-31T02:58:32;99556.78;;;11.64;100.00
21203;BME280;10759;51.982;9.232;2023-08-31T03:01:07;99546.06;;;11.64;100.00
21203;BME280;10759;51.982;9.232;2023-08-31T03:03:42;99555.59;;;11.70;100.00
21203;BME280;10759;51.982;9.232;2023-08-31T03:06:12;99554.97;;;11.80;100.00
21203;BME280;10759;51.982;9.232;2023-08-31T03:08:40;99484.56;;;11.44;100.00
21203;BME280;10759;51.982;9.232;2023-08-31T03:11:08;99548.31;;;11.72;100.00
21203;BME280;10759;51.982;9.232;2023-08-31T03:13:37;99544.31;;;11.63;100.00
21203;BME280;10759;51.982;9.232;2023-08-31T03:16:05;99556.44;;;11.54;100.00
21203;BME280;10759;51.982;9.232;2023-08-31T03:18:33;99545.69;;;11.54;100.00
21203;BME280;10759;51.982;9.232;2023-08-31T03:21:02;99552.72;;;11.57;100.00
21203;BME280;10759;51.982;9.232;2023-08-31T03:23:30;99557.63;;;11.49;100.00
21203;BME280;10759;51.982;9.232;2023-08-31T03:25:59;99554.00;;;11.50;100.00
21203;BME280;10759;51.982;9.232;2023-08-31T03:28:27;99559.72;;;11.59;100.00
21203;BME280;10759;51.982;9.232;2023-08-31T03:30:56;99559.72;;;11.59;100.00
21203;BME280;10759;51.982;9.232;2023-08-31T03:33:24;99564.06;;;11.62;100.00
21203;BME280;10759;51.982;9.232;2023-08-31T03:35:54;99565.28;;;11.72;100.00
21203;BME280;10759;51.982;9.232;2023-08-31T03:38:23;99562.06;;;11.66;100.00
21203;BME280;10759;51.982;9.232;2023-08-31T03:40:53;99561.63;;;11.73;100.00
21203;BME280;10759;51.982;9.232;2023-08-31T03:43:21;99568.38;;;11.80;100.00
21203;BME280;10759;51.982;9.232;2023-08-31T03:45:53;99563.03;;;11.80;100.00
21203;BME280;10759;51.982;9.232;2023-08-31T03:48:23;99542.69;;;11.76;100.00
21203;BME280;10759;51.982;9.232;2023-08-31T03:50:53;99562.78;;;12.01;100.00
21203;BME280;10759;51.982;9.232;2023-08-31T03:53:23;99570.69;;;12.04;100.00
21203;BME280;10759;51.982;9.232;2023-08-31T03:55:56;99558.56;;;11.97;100.00
21203;BME280;10759;51.982;9.232;2023-08-31T03:58:24;99557.53;;;11.99;100.00
21203;BME280;10759;51.982;9.232;2023-08-31T04:00:54;99559.69;;;12.09;100.00
21203;BME280;10759;51.982;9.232;2023-08-31T04:03:22;99567.47;;;12.13;100.00
21203;BME280;10759;51.982;9.232;2023-08-31T04:05:54;99548.75;;;11.96;100.00
21203;BME280;10759;51.982;9.232;2023-08-31T04:08:24;99575.50;;;12.13;100.00
21203;BME280;10759;51.982;9.232;2023-08-31T04:10:52;99581.00;;;12.12;100.00
21203;BME280;10759;51.982;9.232;2023-08-31T04:13:20;99586.44;;;12.10;100.00
21203;BME280;10759;51.982;9.232;2023-08-31T04:15:49;99482.34;;;11.52;100.00
21203;BME280;10759;51.982;9.232;2023-08-31T04:18:16;99583.25;;;12.03;100.00
21203;BME280;10759;51.982;9.232;2023-08-31T04:20:49;99589.81;;;11.98;100.00
21203;BME280;10759;51.982;9.232;2023-08-31T04:23:19;99581.16;;;11.93;100.00
21203;BME280;10759;51.982;9.232;2023-08-31T04:25:49;99593.00;;;11.89;100.00
21203;BME280;10759;51.982;9.232;2023-08-31T04:28:18;99594.75;;;11.90;100.00
21203;BME280;10759;51.982;9.232;2023-08-31T04:30:46;99599.06;;;11.76;100.00
21203;BME280;10759;51.982;9.232;2023-08-31T04:33:14;99598.53;;;11.86;100.00
21203;BME280;10759;51.982;9.232;2023-08-31T04:35:43;99609.13;;;11.89;100.00
21203;BME280;10759;51.982;9.232;2023-08-31T04:38:11;99609.00;;;11.74;100.00
21203;BME280;10759;51.982;9.232;2023-08-31T04:40:39;99606.53;;;11.87;100.00
21203;BME280;10759;51.982;9.232;2023-08-31T04:43:09;99607.41;;;11.88;100.00
21203;BME280;10759;51.982;9.232;2023-08-31T04:45:37;99612.13;;;11.82;100.00
21203;BME280;10759;51.982;9.232;2023-08-31T04:48:06;99618.19;;;11.86;100.00
21203;BME280;10759;51.982;9.232;2023-08-31T04:50:34;99616.41;;;11.87;100.00
21203;BME280;10759;51.982;9.232;2023-08-31T04:53:02;99620.00;;;11.86;100.00
21203;BME280;10759;51.982;9.232;2023-08-31T04:55:31;99614.88;;;11.81;100.00
21203;BME280;10759;51.982;9.232;2023-08-31T04:57:59;99626.97;;;11.90;100.00
21203;BME280;10759;51.982;9.232;2023-08-31T05:00:28;99628.69;;;11.91;100.00
21203;BME280;10759;51.982;9.232;2023-08-31T05:02:57;99628.69;;;11.91;100.00
21203;BME280;10759;51.982;9.232;2023-08-31T05:05:25;99622.41;;;11.92;100.00
21203;BME280;10759;51.982;9.232;2023-08-31T05:07:53;99612.09;;;12.00;100.00
21203;BME280;10759;51.982;9.232;2023-08-31T05:10:21;99629.56;;;12.23;100.00
21203;BME280;10759;51.982;9.232;2023-08-31T05:12:49;99628.13;;;12.17;100.00
21203;BME280;10759;51.982;9.232;2023-08-31T05:15:18;99625.59;;;12.14;100.00
21203;BME280;10759;51.982;9.232;2023-08-31T05:17:48;99534.09;;;11.70;100.00
21203;BME280;10759;51.982;9.232;2023-08-31T05:20:17;99641.88;;;12.27;100.00
21203;BME280;10759;51.982;9.232;2023-08-31T05:22:45;99639.28;;;12.25;100.00
21203;BME280;10759;51.982;9.232;2023-08-31T05:25:14;99624.81;;;12.12;100.00
21203;BME280;10759;51.982;9.232;2023-08-31T05:27:42;99646.03;;;12.33;100.00
21203;BME280;10759;51.982;9.232;2023-08-31T05:30:10;99600.66;;;12.12;100.00
21203;BME280;10759;51.982;9.232;2023-08-31T05:32:38;99652.28;;;12.49;100.00
21203;BME280;10759;51.982;9.232;2023-08-31T05:35:08;99577.00;;;12.03;100.00
21203;BME280;10759;51.982;9.232;2023-08-31T05:37:36;99658.69;;;12.62;100.00
21203;BME280;10759;51.982;9.232;2023-08-31T05:40:06;99654.53;;;12.57;100.00
21203;BME280;10759;51.982;9.232;2023-08-31T05:42:37;99660.75;;;12.73;100.00
21203;BME280;10759;51.982;9.232;2023-08-31T05:45:06;99641.69;;;12.62;100.00
21203;BME280;10759;51.982;9.232;2023-08-31T05:47:35;99668.38;;;12.81;100.00
21203;BME280;10759;51.982;9.232;2023-08-31T05:50:07;99638.56;;;12.70;100.00
21203;BME280;10759;51.982;9.232;2023-08-31T05:52:35;99666.53;;;12.81;100.00
21203;BME280;10759;51.982;9.232;2023-08-31T05:55:04;99523.03;;;12.08;100.00
21203;BME280;10759;51.982;9.232;2023-08-31T05:57:33;99666.94;;;12.89;100.00
21203;BME280;10759;51.982;9.232;2023-08-31T06:00:02;99655.78;;;12.81;100.00
21203;BME280;10759;51.982;9.232;2023-08-31T06:02:38;99575.84;;;12.39;100.00
21203;BME280;10759;51.982;9.232;2023-08-31T06:05:09;99599.78;;;12.43;100.00
21203;BME280;10759;51.982;9.232;2023-08-31T06:07:39;99678.41;;;12.93;100.00
21203;BME280;10759;51.982;9.232;2023-08-31T06:10:07;99675.53;;;12.96;100.00
21203;BME280;10759;51.982;9.232;2023-08-31T06:12:36;99631.03;;;12.60;100.00
21203;BME280;10759;51.982;9.232;2023-08-31T06:15:05;99677.63;;;12.91;100.00
21203;BME280;10759;51.982;9.232;2023-08-31T06:17:34;99663.66;;;12.84;100.00
21203;BME280;10759;51.982;9.232;2023-08-31T06:20:03;99671.94;;;13.11;100.00
21203;BME280;10759;51.982;9.232;2023-08-31T06:22:35;99679.13;;;13.27;100.00
21203;BME280;10759;51.982;9.232;2023-08-31T06:25:04;99678.56;;;13.36;100.00
21203;BME280;10759;51.982;9.232;2023-08-31T06:27:32;99679.09;;;13.57;100.00
21203;BME280;10759;51.982;9.232;2023-08-31T06:30:00;99677.06;;;13.75;100.00
21203;BME280;10759;51.982;9.232;2023-08-31T06:32:30;99677.50;;;13.83;100.00
21203;BME280;10759;51.982;9.232;2023-08-31T06:34:59;99639.19;;;13.78;100.00
21203;BME280;10759;51.982;9.232;2023-08-31T06:37:27;99678.81;;;14.05;100.00
21203;BME280;10759;51.982;9.232;2023-08-31T06:39:57;99678.81;;;14.05;100.00
21203;BME280;10759;51.982;9.232;2023-08-31T06:42:25;99679.22;;;13.99;100.00
21203;BME280;10759;51.982;9.232;2023-08-31T06:44:53;99687.09;;;14.16;100.00
21203;BME280;10759;51.982;9.232;2023-08-31T06:47:23;99688.63;;;13.91;100.00
21203;BME280;10759;51.982;9.232;2023-08-31T06:49:51;99694.78;;;13.79;100.00
21203;BME280;10759;51.982;9.232;2023-08-31T06:52:19;99695.75;;;13.92;100.00
21203;BME280;10759;51.982;9.232;2023-08-31T06:54:59;99699.78;;;14.14;100.00
21203;BME280;10759;51.982;9.232;2023-08-31T06:57:27;99702.63;;;14.39;100.00
21203;BME280;10759;51.982;9.232;2023-08-31T06:59:55;99701.56;;;14.56;100.00
21203;BME280;10759;51.982;9.232;2023-08-31T07:02:26;99639.50;;;14.29;100.00
21203;BME280;10759;51.982;9.232;2023-08-31T07:04:55;99690.63;;;14.31;100.00
21203;BME280;10759;51.982;9.232;2023-08-31T07:07:23;99708.06;;;14.11;100.00
21203;BME280;10759;51.982;9.232;2023-08-31T07:09:52;99716.81;;;14.14;100.00
21203;BME280;10759;51.982;9.232;2023-08-31T07:12:22;99715.38;;;14.09;100.00
21203;BME280;10759;51.982;9.232;2023-08-31T07:14:51;99725.78;;;14.01;100.00
21203;BME280;10759;51.982;9.232;2023-08-31T07:17:19;99715.28;;;13.96;100.00
21203;BME280;10759;51.982;9.232;2023-08-31T07:19:47;99708.81;;;13.84;100.00
21203;BME280;10759;51.982;9.232;2023-08-31T07:22:15;99711.03;;;14.21;100.00
21203;BME280;10759;51.982;9.232;2023-08-31T07:24:44;99709.78;;;14.55;100.00
21203;BME280;10759;51.982;9.232;2023-08-31T07:27:12;99704.75;;;14.63;100.00
21203;BME280;10759;51.982;9.232;2023-08-31T07:29:42;99707.09;;;14.55;100.00
21203;BME280;10759;51.982;9.232;2023-08-31T07:32:10;99710.91;;;14.36;100.00
21203;BME280;10759;51.982;9.232;2023-08-31T07:34:38;99717.16;;;14.37;100.00
21203;BME280;10759;51.982;9.232;2023-08-31T07:37:07;99718.81;;;14.54;100.00
21203;BME280;10759;51.982;9.232;2023-08-31T07:39:35;99728.56;;;14.28;100.00
21203;BME280;10759;51.982;9.232;2023-08-31T07:42:05;99664.97;;;13.96;100.00
21203;BME280;10759;51.982;9.232;2023-08-31T07:44:33;99705.94;;;14.16;100.00
21203;BME280;10759;51.982;9.232;2023-08-31T07:47:03;99729.31;;;14.30;100.00
21203;BME280;10759;51.982;9.232;2023-08-31T07:49:31;99726.50;;;14.46;100.00
21203;BME280;10759;51.982;9.232;2023-08-31T07:51:59;99737.94;;;14.49;100.00
21203;BME280;10759;51.982;9.232;2023-08-31T07:54:28;99720.75;;;14.37;100.00
21203;BME280;10759;51.982;9.232;2023-08-31T07:56:57;99728.66;;;14.55;100.00
21203;BME280;10759;51.982;9.232;2023-08-31T07:59:25;99728.06;;;14.50;100.00
21203;BME280;10759;51.982;9.232;2023-08-31T08:01:56;99732.97;;;14.99;100.00
21203;BME280;10759;51.982;9.232;2023-08-31T08:04:25;99728.94;;;14.92;100.00
21203;BME280;10759;51.982;9.232;2023-08-31T08:06:54;99743.78;;;14.85;100.00
21203;BME280;10759;51.982;9.232;2023-08-31T08:09:22;99738.19;;;14.88;100.00
21203;BME280;10759;51.982;9.232;2023-08-31T08:11:51;99737.03;;;14.92;100.00
21203;BME280;10759;51.982;9.232;2023-08-31T08:14:19;99737.31;;;14.60;100.00
21203;BME280;10759;51.982;9.232;2023-08-31T08:16:47;99737.41;;;14.86;100.00
21203;BME280;10759;51.982;9.232;2023-08-31T08:19:21;99707.34;;;15.19;100.00
21203;BME280;10759;51.982;9.232;2023-08-31T08:21:51;99735.91;;;15.49;100.00
21203;BME280;10759;51.982;9.232;2023-08-31T08:24:19;99731.66;;;15.32;100.00
21203;BME280;10759;51.982;9.232;2023-08-31T08:26:48;99739.31;;;15.38;100.00
21203;BME280;10759;51.982;9.232;2023-08-31T08:29:18;99740.59;;;15.19;100.00
21203;BME280;10759;51.982;9.232;2023-08-31T08:31:46;99742.31;;;15.20;100.00
21203;BME280;10759;51.982;9.232;2023-08-31T08:34:14;99700.63;;;14.85;100.00
21203;BME280;10759;51.982;9.232;2023-08-31T08:36:42;99747.97;;;15.03;100.00
21203;BME280;10759;51.982;9.232;2023-08-31T08:39:12;99751.63;;;15.02;100.00
21203;BME280;10759;51.982;9.232;2023-08-31T08:41:41;99756.78;;;14.92;100.00
21203;BME280;10759;51.982;9.232;2023-08-31T08:44:14;99749.19;;;14.85;100.00
21203;BME280;10759;51.982;9.232;2023-08-31T08:46:45;99744.94;;;14.80;100.00
21203;BME280;10759;51.982;9.232;2023-08-31T08:49:15;99738.34;;;14.99;100.00
21203;BME280;10759;51.982;9.232;2023-08-31T08:51:43;99732.88;;;15.13;100.00
21203;BME280;10759;51.982;9.232;2023-08-31T08:54:15;99743.69;;;15.53;100.00
21203;BME280;10759;51.982;9.232;2023-08-31T08:56:44;99749.00;;;15.67;100.00
21203;BME280;10759;51.982;9.232;2023-08-31T08:59:12;99748.19;;;15.80;100.00
21203;BME280;10759;51.982;9.232;2023-08-31T09:01:41;99742.31;;;15.60;100.00
21203;BME280;10759;51.982;9.232;2023-08-31T09:04:10;99755.00;;;15.45;100.00
21203;BME280;10759;51.982;9.232;2023-08-31T09:06:38;99751.75;;;15.40;100.00
21203;BME280;10759;51.982;9.232;2023-08-31T09:09:07;99756.47;;;15.24;100.00
21203;BME280;10759;51.982;9.232;2023-08-31T09:11:37;99745.78;;;14.95;100.00
21203;BME280;10759;51.982;9.232;2023-08-31T09:14:15;99755.84;;;15.06;100.00
21203;BME280;10759;51.982;9.232;2023-08-31T09:16:44;99749.03;;;15.28;100.00
21203;BME280;10759;51.982;9.232;2023-08-31T09:19:18;99748.34;;;15.64;100.00
21203;BME280;10759;51.982;9.232;2023-08-31T09:21:51;99755.00;;;15.85;100.00
21203;BME280;10759;51.982;9.232;2023-08-31T09:24:20;99737.81;;;15.86;100.00
21203;BME280;10759;51.982;9.232;2023-08-31T09:26:52;99740.59;;;15.72;100.00
21203;BME280;10759;51.982;9.232;2023-08-31T09:29:22;99749.22;;;15.64;100.00
21203;BME280;10759;51.982;9.232;2023-08-31T09:31:50;99748.84;;;15.71;100.00
21203;BME280;10759;51.982;9.232;2023-08-31T09:34:19;99745.16;;;15.84;100.00
21203;BME280;10759;51.982;9.232;2023-08-31T09:36:49;99733.72;;;15.94;100.00
21203;BME280;10759;51.982;9.232;2023-08-31T09:39:18;99736.41;;;16.06;100.00
21203;BME280;10759;51.982;9.232;2023-08-31T09:41:56;99731.00;;;16.32;100.00
21203;BME280;10759;51.982;9.232;2023-08-31T09:44:26;99734.59;;;16.20;100.00
21203;BME280;10759;51.982;9.232;2023-08-31T09:46:54;99731.28;;;16.40;100.00
21203;BME280;10759;51.982;9.232;2023-08-31T09:49:23;99732.66;;;16.59;100.00
21203;BME280;10759;51.982;9.232;2023-08-31T09:51:52;99713.63;;;16.60;100.00
21203;BME280;10759;51.982;9.232;2023-08-31T09:54:21;99740.75;;;16.84;100.00
21203;BME280;10759;51.982;9.232;2023-08-31T09:56:51;99719.97;;;16.72;100.00
21203;BME280;10759;51.982;9.232;2023-08-31T09:59:22;99736.59;;;16.91;100.00
21203;BME280;10759;51.982;9.232;2023-08-31T10:01:52;99736.03;;;16.99;100.00
21203;BME280;10759;51.982;9.232;2023-08-31T10:04:23;99738.06;;;16.95;97.78
21203;BME280;10759;51.982;9.232;2023-08-31T10:06:51;99727.59;;;17.15;97.94
21203;BME280;10759;51.982;9.232;2023-08-31T10:09:20;99705.78;;;17.05;96.59
21203;BME280;10759;51.982;9.232;2023-08-31T10:11:50;99723.75;;;17.06;93.77
21203;BME280;10759;51.982;9.232;2023-08-31T10:14:19;99738.91;;;17.09;94.47
21203;BME280;10759;51.982;9.232;2023-08-31T10:16:51;99736.13;;;16.98;96.44
21203;BME280;10759;51.982;9.232;2023-08-31T10:19:21;99746.97;;;16.98;93.86
21203;BME280;10759;51.982;9.232;2023-08-31T10:21:49;99754.38;;;16.83;95.00
21203;BME280;10759;51.982;9.232;2023-08-31T10:24:17;99744.56;;;17.06;96.02
21203;BME280;10759;51.982;9.232;2023-08-31T10:26:45;99748.47;;;17.02;92.13
21203;BME280;10759;51.982;9.232;2023-08-31T10:29:26;99741.63;;;17.09;97.63
21203;BME280;10759;51.982;9.232;2023-08-31T10:32:00;99738.56;;;17.13;93.40
21203;BME280;10759;51.982;9.232;2023-08-31T10:34:35;99746.28;;;17.07;92.86
21203;BME280;10759;51.982;9.232;2023-08-31T10:37:20;99758.13;;;16.93;94.23
21203;BME280;10759;51.982;9.232;2023-08-31T10:40:06;99753.44;;;16.58;96.48
21203;BME280;10759;51.982;9.232;2023-08-31T10:42:41;99754.84;;;16.64;95.83
21203;BME280;10759;51.982;9.232;2023-08-31T10:45:13;99750.47;;;16.74;94.99
21203;BME280;10759;51.982;9.232;2023-08-31T10:47:47;99752.19;;;16.88;95.51
21203;BME280;10759;51.982;9.232;2023-08-31T10:50:17;99757.78;;;16.98;94.32
21203;BME280;10759;51.982;9.232;2023-08-31T10:52:46;99758.38;;;16.77;95.35
21203;BME280;10759;51.982;9.232;2023-08-31T10:55:14;99756.56;;;16.65;98.93
21203;BME280;10759;51.982;9.232;2023-08-31T10:57:43;99751.63;;;16.95;98.20
21203;BME280;10759;51.982;9.232;2023-08-31T11:00:12;99751.41;;;16.99;95.82
21203;BME280;10759;51.982;9.232;2023-08-31T11:02:44;99762.63;;;17.05;95.34
21203;BME280;10759;51.982;9.232;2023-08-31T11:05:14;99763.44;;;16.94;94.91
21203;BME280;10759;51.982;9.232;2023-08-31T11:07:44;99761.53;;;16.84;97.58
21203;BME280;10759;51.982;9.232;2023-08-31T11:10:15;99754.16;;;16.73;98.18
21203;BME280;10759;51.982;9.232;2023-08-31T11:12:45;99757.00;;;16.59;100.00
21203;BME280;10759;51.982;9.232;2023-08-31T11:15:15;99718.84;;;16.50;100.00
21203;BME280;10759;51.982;9.232;2023-08-31T11:17:46;99733.06;;;16.65;100.00
21203;BME280;10759;51.982;9.232;2023-08-31T11:20:15;99672.16;;;16.36;100.00
21203;BME280;10759;51.982;9.232;2023-08-31T11:22:46;99758.03;;;17.19;100.00
21203;BME280;10759;51.982;9.232;2023-08-31T11:25:17;99716.94;;;17.25;100.00
21203;BME280;10759;51.982;9.232;2023-08-31T11:27:53;99710.91;;;17.56;98.58
21203;BME280;10759;51.982;9.232;2023-08-31T11:30:22;99742.81;;;18.11;97.84
21203;BME280;10759;51.982;9.232;2023-08-31T11:32:53;99748.19;;;17.88;92.28
21203;BME280;10759;51.982;9.232;2023-08-31T11:35:22;99740.88;;;17.77;92.44
21203;BME280;10759;51.982;9.232;2023-08-31T11:37:52;99735.16;;;17.58;92.02
21203;BME280;10759;51.982;9.232;2023-08-31T11:40:20;99711.19;;;17.05;91.45
21203;BME280;10759;51.982;9.232;2023-08-31T11:42:49;99741.34;;;17.01;91.61
21203;BME280;10759;51.982;9.232;2023-08-31T11:45:18;99755.41;;;16.93;99.48
21203;BME280;10759;51.982;9.232;2023-08-31T11:47:47;99771.31;;;16.35;100.00
21203;BME280;10759;51.982;9.232;2023-08-31T11:50:18;99769.72;;;15.54;100.00
21203;BME280;10759;51.982;9.232;2023-08-31T11:52:46;99773.94;;;15.58;100.00
21203;BME280;10759;51.982;9.232;2023-08-31T11:55:16;99772.41;;;15.81;100.00
21203;BME280;10759;51.982;9.232;2023-08-31T11:57:49;99776.31;;;15.90;100.00
21203;BME280;10759;51.982;9.232;2023-08-31T12:00:18;99779.41;;;16.09;100.00
21203;BME280;10759;51.982;9.232;2023-08-31T12:02:55;99734.69;;;15.93;100.00
21203;BME280;10759;51.982;9.232;2023-08-31T12:05:25;99773.91;;;16.49;100.00
21203;BME280;10759;51.982;9.232;2023-08-31T12:07:54;99769.13;;;16.79;100.00
21203;BME280;10759;51.982;9.232;2023-08-31T12:10:24;99746.03;;;16.73;100.00
21203;BME280;10759;51.982;9.232;2023-08-31T12:13:07;99762.66;;;16.92;100.00
21203;BME280;10759;51.982;9.232;2023-08-31T12:15:39;99768.16;;;17.04;100.00
21203;BME280;10759;51.982;9.232;2023-08-31T12:18:11;99761.59;;;17.19;100.00
21203;BME280;10759;51.982;9.232;2023-08-31T12:20:45;99761.47;;;16.97;100.00
21203;BME280;10759;51.982;9.232;2023-08-31T12:23:13;99770.28;;;17.11;100.00
21203;BME280;10759;51.982;9.232;2023-08-31T12:25:47;99771.09;;;17.01;100.00
21203;BME280;10759;51.982;9.232;2023-08-31T12:28:18;99747.28;;;16.93;100.00
21203;BME280;10759;51.982;9.232;2023-08-31T12:30:48;99728.59;;;16.77;100.00
21203;BME280;10759;51.982;9.232;2023-08-31T12:33:17;99766.94;;;17.08;100.00
21203;BME280;10759;51.982;9.232;2023-08-31T12:35:47;99783.47;;;16.92;100.00
21203;BME280;10759;51.982;9.232;2023-08-31T12:38:15;99796.38;;;16.63;100.00
21203;BME280;10759;51.982;9.232;2023-08-31T12:40:44;99792.28;;;16.19;100.00
21203;BME280;10759;51.982;9.232;2023-08-31T12:43:12;99798.56;;;16.06;100.00
21203;BME280;10759;51.982;9.232;2023-08-31T12:45:41;99801.72;;;16.00;100.00
21203;BME280;10759;51.982;9.232;2023-08-31T12:48:09;99792.94;;;16.09;100.00
21203;BME280;10759;51.982;9.232;2023-08-31T12:50:37;99773.59;;;16.16;100.00
21203;BME280;10759;51.982;9.232;2023-08-31T12:53:07;99790.47;;;16.45;100.00
21203;BME280;10759;51.982;9.232;2023-08-31T12:55:35;99793.53;;;16.77;100.00
21203;BME280;10759;51.982;9.232;2023-08-31T12:58:04;99792.00;;;16.86;100.00
21203;BME280;10759;51.982;9.232;2023-08-31T13:00:32;99794.66;;;17.11;100.00
21203;BME280;10759;51.982;9.232;2023-08-31T13:03:00;99791.19;;;17.09;100.00